Time;durP1;ratioP1;P1;durP2;ratioP2;P2;SDS_P1;SDS_P2;PMS_P1;PMS_P2;Temp;Humidity;BMP_temperature;BMP_pressure;BME280_temperature;BME280_humidity;BME280_pressure;Samples;Min_cycle;Max_cycle;Signal;HPM_P1;HPM_P2
2023/11/02 00:00:56;;;;;;;;;;;;;;;11.90;62.63;96555.78;5086004;28;19924;-75
2023/11/02 00:03:44;;;;;;;;;;;;;;;11.97;62.64;96555.94;5080854;28;19924;-75
2023/11/02 00:06:34;;;;;;;;;;;;;;;11.86;62.90;96538.56;5071126;28;19935;-75
2023/11/02 00:09:43;;;;;;;;;;;;;;;11.80;62.82;96531.78;5068361;28;19928;-77
2023/11/02 00:12:33;;;;;;;;;;;;;;;11.76;63.35;96533.63;5063351;28;20018;-77
2023/11/02 00:15:21;;;;;;;;;;;;;;;11.46;64.10;96534.06;5088561;28;20032;-77
2023/11/02 00:18:09;;;;;;;;;;;;;;;11.63;63.72;96537.59;5067547;28;20466;-77
2023/11/02 00:20:57;;;;;;;;;;;;;;;11.51;64.04;96520.22;5080724;28;19924;-77
2023/11/02 00:23:46;;;;;;;;;;;;;;;11.68;63.67;96529.16;5088419;28;19997;-76
2023/11/02 00:26:34;;;;;;;;;;;;;;;11.50;64.25;96518.66;5078506;28;19931;-76
2023/11/02 00:29:24;;;;;;;;;;;;;;;11.62;63.70;96520.47;5068756;28;19924;-76
2023/11/02 00:32:12;;;;;;;;;;;;;;;11.54;63.76;96513.28;5052666;28;19924;-76
2023/11/02 00:35:00;;;;;;;;;;;;;;;11.45;64.16;96509.94;5068444;28;20303;-78
2023/11/02 00:37:49;;;;;;;;;;;;;;;11.55;64.03;96504.75;5053867;28;19936;-76
2023/11/02 00:40:37;;;;;;;;;;;;;;;11.62;63.59;96514.25;5059170;28;19925;-78
2023/11/02 00:43:25;;;;;;;;;;;;;;;11.40;64.46;96494.69;5065748;28;19925;-77
2023/11/02 00:46:14;;;;;;;;;;;;;;;11.22;64.59;96493.44;5071220;28;19939;-77
2023/11/02 00:49:02;;;;;;;;;;;;;;;10.87;65.99;96479.72;5067097;28;19931;-77
2023/11/02 00:51:55;;;;;;;;;;;;;;;11.19;64.91;96480.56;5055548;28;19931;-77
2023/11/02 00:54:55;;;;;;;;;;;;;;;10.90;65.26;96479.03;5064005;28;20489;-77
2023/11/02 00:57:43;;;;;;;;;;;;;;;10.27;67.59;96467.97;5050100;28;19986;-78
2023/11/02 01:00:44;;;;;;;;;;;;;;;10.86;66.06;96468.06;5047134;28;20005;-77
2023/11/02 01:03:33;;;;;;;;;;;;;;;10.92;65.68;96471.31;5076087;28;20372;-77
2023/11/02 01:06:22;;;;;;;;;;;;;;;11.11;64.83;96462.47;5065876;28;19924;-77
2023/11/02 01:09:26;;;;;;;;;;;;;;;11.08;64.73;96449.59;5053914;28;20497;-77
2023/11/02 01:12:15;;;;;;;;;;;;;;;11.02;64.98;96439.00;5069120;28;19943;-77
2023/11/02 01:15:04;;;;;;;;;;;;;;;11.02;64.49;96428.13;5069006;28;20098;-77
2023/11/02 01:17:52;;;;;;;;;;;;;;;10.92;64.74;96412.34;5063920;28;20273;-77
2023/11/02 01:20:52;;;;;;;;;;;;;;;11.02;64.72;96411.00;5053165;28;19925;-77
2023/11/02 01:23:41;;;;;;;;;;;;;;;10.95;65.04;96399.97;5039634;28;19928;-77
2023/11/02 01:26:59;;;;;;;;;;;;;;;11.00;64.44;96399.72;5068887;28;19924;-77
2023/11/02 01:29:48;;;;;;;;;;;;;;;10.87;64.81;96371.84;5090205;28;20320;-77
2023/11/02 01:32:36;;;;;;;;;;;;;;;10.69;65.38;96371.38;5089262;28;19935;-77
2023/11/02 01:35:34;;;;;;;;;;;;;;;10.90;65.00;96382.00;5068843;28;19928;-77
2023/11/02 01:38:24;;;;;;;;;;;;;;;10.83;64.83;96379.13;5080632;28;19985;-77
2023/11/02 01:41:14;;;;;;;;;;;;;;;10.57;65.55;96371.47;5072303;28;19958;-78
2023/11/02 01:44:04;;;;;;;;;;;;;;;10.36;66.44;96363.53;5089713;28;20003;-77
2023/11/02 01:46:58;;;;;;;;;;;;;;;10.25;66.47;96354.31;5084988;28;19924;-77
2023/11/02 01:49:51;;;;;;;;;;;;;;;10.46;65.90;96341.31;5076166;28;19934;-77
2023/11/02 01:53:03;;;;;;;;;;;;;;;10.51;65.81;96344.91;5076873;28;19932;-77
2023/11/02 01:55:57;;;;;;;;;;;;;;;10.45;65.60;96344.38;5067562;28;19946;-77
2023/11/02 01:58:52;;;;;;;;;;;;;;;10.45;65.81;96339.75;5085185;28;19932;-77
2023/11/02 02:01:42;;;;;;;;;;;;;;;10.41;65.89;96338.06;5084148;28;20074;-77
2023/11/02 02:04:37;;;;;;;;;;;;;;;10.41;66.17;96325.28;5074263;28;20261;-77
2023/11/02 02:07:27;;;;;;;;;;;;;;;10.44;65.74;96308.31;5085872;28;19931;-77
2023/11/02 02:10:22;;;;;;;;;;;;;;;10.02;67.17;96305.22;5075332;28;19924;-77
2023/11/02 02:13:15;;;;;;;;;;;;;;;10.25;66.59;96299.25;5066742;28;20319;-77
2023/11/02 02:16:06;;;;;;;;;;;;;;;10.21;66.72;96296.41;5075575;28;20954;-76
2023/11/02 02:18:55;;;;;;;;;;;;;;;10.09;67.11;96289.13;5065327;28;20373;-77
2023/11/02 02:21:50;;;;;;;;;;;;;;;10.13;67.11;96278.38;5068878;28;19930;-77
2023/11/02 02:24:43;;;;;;;;;;;;;;;10.29;66.47;96271.06;5080846;28;20335;-77
2023/11/02 02:27:43;;;;;;;;;;;;;;;10.15;66.73;96271.47;5066748;28;19948;-77
2023/11/02 02:30:52;;;;;;;;;;;;;;;10.31;66.31;96266.06;5063891;28;19925;-76
2023/11/02 02:33:46;;;;;;;;;;;;;;;10.30;66.15;96261.78;5055723;28;19924;-77
2023/11/02 02:36:37;;;;;;;;;;;;;;;10.35;66.10;96269.69;5078844;28;20396;-78
2023/11/02 02:39:26;;;;;;;;;;;;;;;10.24;66.19;96274.03;5069190;28;19981;-77
2023/11/02 02:42:15;;;;;;;;;;;;;;;10.27;66.52;96267.91;5065710;28;20017;-77
2023/11/02 02:45:06;;;;;;;;;;;;;;;10.13;66.68;96270.25;5068633;28;19932;-77
2023/11/02 02:47:57;;;;;;;;;;;;;;;10.30;66.34;96269.94;5063344;28;20073;-77
2023/11/02 02:50:46;;;;;;;;;;;;;;;10.08;67.02;96268.56;5065558;28;19931;-78
2023/11/02 02:53:37;;;;;;;;;;;;;;;10.02;67.59;96267.25;5069079;28;19935;-77
2023/11/02 02:56:25;;;;;;;;;;;;;;;10.15;66.87;96262.53;5067419;28;19933;-77
2023/11/02 02:59:16;;;;;;;;;;;;;;;10.04;67.31;96258.75;5070209;28;20395;-77
2023/11/02 03:02:05;;;;;;;;;;;;;;;10.10;67.25;96251.94;5062115;28;19928;-76
2023/11/02 03:04:54;;;;;;;;;;;;;;;10.13;67.22;96243.91;5064108;28;20502;-78
2023/11/02 03:07:42;;;;;;;;;;;;;;;9.49;69.32;96242.19;5054144;28;19970;-78
2023/11/02 03:10:32;;;;;;;;;;;;;;;9.94;68.15;96233.69;5067785;28;19966;-77
2023/11/02 03:13:20;;;;;;;;;;;;;;;10.00;67.98;96230.72;5058321;28;19924;-77
2023/11/02 03:16:09;;;;;;;;;;;;;;;9.81;68.51;96223.28;5061862;28;19924;-79
2023/11/02 03:18:57;;;;;;;;;;;;;;;9.47;69.15;96192.13;5062342;28;20375;-78
2023/11/02 03:21:45;;;;;;;;;;;;;;;9.47;69.48;96181.28;5053635;28;19928;-77
2023/11/02 03:24:34;;;;;;;;;;;;;;;9.73;68.53;96167.28;5054747;28;19928;-77
2023/11/02 03:27:25;;;;;;;;;;;;;;;9.78;67.70;96148.03;5050300;28;20062;-77
2023/11/02 03:30:15;;;;;;;;;;;;;;;9.73;68.05;96151.78;5053886;28;20336;-77
2023/11/02 03:33:07;;;;;;;;;;;;;;;9.81;68.08;96158.97;5061277;28;20388;-77
2023/11/02 03:35:58;;;;;;;;;;;;;;;9.80;67.91;96146.56;5067316;28;19928;-77
2023/11/02 03:38:54;;;;;;;;;;;;;;;9.84;67.78;96136.56;5066945;28;19925;-78
2023/11/02 03:41:45;;;;;;;;;;;;;;;9.81;67.95;96139.22;5044768;28;19931;-77
2023/11/02 03:44:38;;;;;;;;;;;;;;;9.89;67.58;96127.38;5068090;28;19932;-77
2023/11/02 03:47:35;;;;;;;;;;;;;;;9.93;67.31;96118.19;5066534;28;19924;-77
2023/11/02 03:50:25;;;;;;;;;;;;;;;9.85;67.44;96104.81;5062108;28;19931;-77
2023/11/02 03:53:14;;;;;;;;;;;;;;;9.94;67.02;96098.06;5054409;28;20007;-77
2023/11/02 03:56:10;;;;;;;;;;;;;;;9.88;66.96;96096.75;5053122;28;19936;-77
2023/11/02 03:59:01;;;;;;;;;;;;;;;9.87;67.38;96086.28;5057743;28;20283;-78
2023/11/02 04:01:53;;;;;;;;;;;;;;;9.80;67.49;96078.75;5059967;28;20328;-78
2023/11/02 04:04:41;;;;;;;;;;;;;;;9.75;67.59;96064.66;5057424;28;20290;-77
2023/11/02 04:07:30;;;;;;;;;;;;;;;9.89;67.18;96046.00;5056322;28;19925;-77
2023/11/02 04:10:19;;;;;;;;;;;;;;;9.67;67.94;96042.00;5056655;28;19931;-78
2023/11/02 04:13:09;;;;;;;;;;;;;;;9.79;67.30;96036.47;5053398;28;19932;-77
2023/11/02 04:15:57;;;;;;;;;;;;;;;9.90;66.85;96021.25;5045105;28;19932;-77
2023/11/02 04:18:47;;;;;;;;;;;;;;;9.82;67.42;96019.53;5067633;28;20300;-78
2023/11/02 04:21:35;;;;;;;;;;;;;;;9.76;67.41;96017.44;5076695;28;19924;-77
2023/11/02 04:24:24;;;;;;;;;;;;;;;9.66;67.70;96010.63;5048046;28;19924;-77
2023/11/02 04:27:12;;;;;;;;;;;;;;;9.76;67.64;96007.38;5058514;28;19925;-77
2023/11/02 04:30:00;;;;;;;;;;;;;;;9.73;67.53;95996.44;5079839;28;19931;-78
2023/11/02 04:32:51;;;;;;;;;;;;;;;9.77;67.38;95995.38;5072690;28;20406;-77
2023/11/02 04:35:41;;;;;;;;;;;;;;;9.87;67.30;95988.63;5092047;28;19923;-77
2023/11/02 04:38:29;;;;;;;;;;;;;;;9.74;67.63;95968.16;5075386;28;19924;-78
2023/11/02 04:41:17;;;;;;;;;;;;;;;9.79;67.79;95965.19;5069656;28;19997;-77
2023/11/02 04:44:05;;;;;;;;;;;;;;;9.75;67.89;95951.56;5066564;28;19924;-78
2023/11/02 04:46:54;;;;;;;;;;;;;;;9.84;67.55;95935.88;5075657;28;20024;-78
2023/11/02 04:49:42;;;;;;;;;;;;;;;9.77;68.09;95930.28;5086723;28;19924;-77
2023/11/02 04:52:37;;;;;;;;;;;;;;;9.56;68.65;95921.69;5087286;28;19925;-77
2023/11/02 04:55:25;;;;;;;;;;;;;;;9.87;68.24;95908.03;5071255;28;20326;-77
2023/11/02 04:58:14;;;;;;;;;;;;;;;9.93;67.71;95909.34;5082054;28;19931;-78
2023/11/02 05:01:02;;;;;;;;;;;;;;;10.04;67.48;95916.91;5072137;28;20260;-77
2023/11/02 05:03:51;;;;;;;;;;;;;;;10.01;67.29;95910.25;5093544;28;19970;-77
2023/11/02 05:06:40;;;;;;;;;;;;;;;10.12;66.98;95914.00;5066209;28;19974;-77
2023/11/02 05:09:29;;;;;;;;;;;;;;;9.95;67.69;95909.75;5079294;28;19932;-78
2023/11/02 05:12:17;;;;;;;;;;;;;;;9.96;67.45;95908.63;5092271;28;19935;-78
2023/11/02 05:15:05;;;;;;;;;;;;;;;10.32;66.42;95905.88;5070881;28;19932;-78
2023/11/02 05:17:53;;;;;;;;;;;;;;;10.41;65.99;95920.00;5071010;28;19939;-78
2023/11/02 05:20:41;;;;;;;;;;;;;;;10.54;65.59;95912.50;5075472;28;19925;-77
2023/11/02 05:23:30;;;;;;;;;;;;;;;10.71;65.20;95912.06;5072283;28;19940;-77
2023/11/02 05:26:20;;;;;;;;;;;;;;;10.80;65.00;95923.44;5086920;28;19928;-77
2023/11/02 05:29:08;;;;;;;;;;;;;;;10.58;65.15;95918.78;5088136;28;19924;-77
2023/11/02 05:31:56;;;;;;;;;;;;;;;10.83;64.64;95903.72;5075014;28;20068;-77
2023/11/02 05:34:44;;;;;;;;;;;;;;;10.96;64.16;95904.31;5090961;28;20011;-78
2023/11/02 05:37:32;;;;;;;;;;;;;;;10.86;64.14;95894.84;5092612;28;20384;-77
2023/11/02 05:40:20;;;;;;;;;;;;;;;10.86;64.03;95896.78;5090361;28;22049;-77
2023/11/02 05:43:10;;;;;;;;;;;;;;;10.99;63.99;95890.03;5088281;28;19924;-77
2023/11/02 05:45:58;;;;;;;;;;;;;;;10.87;64.31;95893.72;5082843;28;19924;-78
2023/11/02 05:48:47;;;;;;;;;;;;;;;10.88;64.39;95889.06;5087728;28;19951;-77
2023/11/02 05:51:35;;;;;;;;;;;;;;;11.05;63.85;95885.06;5086799;28;19924;-78
2023/11/02 05:54:24;;;;;;;;;;;;;;;10.87;64.27;95863.84;5080463;28;20380;-77
2023/11/02 05:57:14;;;;;;;;;;;;;;;10.80;64.60;95866.41;5068077;28;19940;-77
2023/11/02 06:00:07;;;;;;;;;;;;;;;10.80;64.37;95858.25;5092048;28;19971;-77
2023/11/02 06:02:56;;;;;;;;;;;;;;;10.90;64.17;95854.16;5076434;28;19928;-77
2023/11/02 06:05:44;;;;;;;;;;;;;;;11.01;64.14;95855.13;5084791;28;20286;-77
2023/11/02 06:08:32;;;;;;;;;;;;;;;10.98;63.77;95851.22;5077598;28;20420;-77
2023/11/02 06:11:20;;;;;;;;;;;;;;;11.03;63.80;95852.84;5071028;28;19990;-77
2023/11/02 06:14:08;;;;;;;;;;;;;;;11.00;64.26;95848.13;5073785;28;19928;-76
2023/11/02 06:16:58;;;;;;;;;;;;;;;10.90;64.22;95838.63;5072462;28;20013;-77
2023/11/02 06:19:46;;;;;;;;;;;;;;;9.86;67.90;95829.75;5076713;28;19943;-77
2023/11/02 06:22:35;;;;;;;;;;;;;;;10.42;66.64;95819.22;5068965;28;20421;-77
2023/11/02 06:25:24;;;;;;;;;;;;;;;9.75;68.53;95799.72;5068652;28;20368;-77
2023/11/02 06:28:12;;;;;;;;;;;;;;;10.29;66.90;95763.53;5072044;28;19931;-76
2023/11/02 06:31:00;;;;;;;;;;;;;;;10.18;67.46;95748.97;5061831;28;19935;-76
2023/11/02 06:33:50;;;;;;;;;;;;;;;10.57;65.80;95759.72;5084459;28;20332;-77
2023/11/02 06:36:38;;;;;;;;;;;;;;;10.65;65.69;95734.25;5080630;28;20011;-86
2023/11/02 06:39:27;;;;;;;;;;;;;;;10.70;65.29;95728.50;5066166;28;19943;-74
2023/11/02 06:42:15;;;;;;;;;;;;;;;10.28;65.91;95726.69;5076040;28;19932;-75
2023/11/02 06:45:03;;;;;;;;;;;;;;;10.72;65.23;95739.81;5087695;28;19932;-76
2023/11/02 06:47:52;;;;;;;;;;;;;;;10.75;64.78;95752.63;5091091;28;20291;-76
2023/11/02 06:50:43;;;;;;;;;;;;;;;10.99;64.72;95756.88;5085139;28;19930;-76
2023/11/02 06:53:31;;;;;;;;;;;;;;;10.96;64.45;95744.81;5075655;28;19924;-76
2023/11/02 06:56:21;;;;;;;;;;;;;;;10.93;64.73;95742.06;5072014;28;19931;-76
2023/11/02 06:59:09;;;;;;;;;;;;;;;10.91;64.41;95739.69;5072281;28;20388;-77
2023/11/02 07:01:57;;;;;;;;;;;;;;;11.23;63.70;95734.69;5089365;28;19958;-77
2023/11/02 07:04:48;;;;;;;;;;;;;;;11.36;63.48;95732.56;5095256;28;19923;-76
2023/11/02 07:07:40;;;;;;;;;;;;;;;11.52;62.87;95744.00;5076686;28;19924;-77
2023/11/02 07:10:31;;;;;;;;;;;;;;;11.46;62.58;95745.50;5081632;28;21266;-76
2023/11/02 07:13:19;;;;;;;;;;;;;;;11.39;63.82;95734.50;5089634;28;19932;-76
2023/11/02 07:16:08;;;;;;;;;;;;;;;11.60;62.81;95731.28;5079886;28;20022;-77
2023/11/02 07:18:58;;;;;;;;;;;;;;;11.48;62.69;95720.66;5090856;28;19924;-76
2023/11/02 07:21:46;;;;;;;;;;;;;;;11.08;64.59;95704.97;5083865;28;19981;-77
2023/11/02 07:24:35;;;;;;;;;;;;;;;11.37;63.94;95723.22;5069950;28;20331;-77
2023/11/02 07:27:24;;;;;;;;;;;;;;;11.63;62.67;95743.38;5068533;28;19932;-76
2023/11/02 07:30:14;;;;;;;;;;;;;;;11.73;62.36;95751.66;5061610;28;20384;-78
2023/11/02 07:33:06;;;;;;;;;;;;;;;11.50;63.34;95750.97;5048501;28;20394;-81
2023/11/02 07:35:54;;;;;;;;;;;;;;;11.24;63.80;95755.31;5064219;28;20534;-80
2023/11/02 07:38:42;;;;;;;;;;;;;;;11.50;63.93;95762.66;5070689;28;19924;-80
2023/11/02 07:41:32;;;;;;;;;;;;;;;11.65;63.11;95760.88;5055496;28;20350;-80
2023/11/02 07:44:20;;;;;;;;;;;;;;;10.89;65.75;95739.28;5053315;28;20518;-80
2023/11/02 07:47:08;;;;;;;;;;;;;;;11.26;64.85;95741.34;5054335;28;19982;-80
2023/11/02 07:49:56;;;;;;;;;;;;;;;11.51;64.24;95747.13;5050822;28;20364;-80
2023/11/02 07:52:45;;;;;;;;;;;;;;;10.62;67.13;95741.19;5048746;28;19924;-83
2023/11/02 07:55:33;;;;;;;;;;;;;;;10.87;66.61;95692.69;5058743;28;19924;-85
2023/11/02 07:58:24;;;;;;;;;;;;;;;10.91;66.49;95696.22;5070411;28;19948;-84
2023/11/02 08:01:12;;;;;;;;;;;;;;;11.28;65.84;95775.16;5048630;28;20083;-80
2023/11/02 08:04:02;;;;;;;;;;;;;;;11.24;65.50;95765.41;5042707;28;20303;-79
2023/11/02 08:06:50;;;;;;;;;;;;;;;11.39;64.62;95786.16;5070215;28;20402;-80
2023/11/02 08:09:38;;;;;;;;;;;;;;;11.11;65.85;95745.81;5065371;28;19924;-81
2023/11/02 08:12:26;;;;;;;;;;;;;;;11.33;65.38;95735.22;5060873;28;20296;-80
2023/11/02 08:15:16;;;;;;;;;;;;;;;11.14;66.02;95714.41;5068944;28;19928;-79
2023/11/02 08:18:04;;;;;;;;;;;;;;;11.44;64.92;95726.03;5072872;28;20450;-84
2023/11/02 08:20:52;;;;;;;;;;;;;;;11.43;64.83;95712.81;5057684;28;19982;-83
2023/11/02 08:23:40;;;;;;;;;;;;;;;11.63;64.96;95754.25;5058754;28;20070;-83
2023/11/02 08:26:28;;;;;;;;;;;;;;;11.63;64.20;95751.53;5069294;28;19928;-82
2023/11/02 08:29:17;;;;;;;;;;;;;;;11.77;63.39;95738.06;5066947;28;20285;-84
2023/11/02 08:32:07;;;;;;;;;;;;;;;11.89;63.24;95751.47;5060685;28;19947;-83
2023/11/02 08:34:55;;;;;;;;;;;;;;;11.89;62.08;95778.69;5064509;28;19925;-83
2023/11/02 08:37:43;;;;;;;;;;;;;;;11.92;62.74;95810.56;5077293;28;19925;-82
2023/11/02 08:40:32;;;;;;;;;;;;;;;12.04;61.61;95818.50;5067004;28;20011;-79
2023/11/02 08:43:20;;;;;;;;;;;;;;;11.58;63.04;95800.81;5083637;28;19932;-83
2023/11/02 08:46:08;;;;;;;;;;;;;;;11.66;62.91;95791.56;5082081;28;19983;-84
2023/11/02 08:48:58;;;;;;;;;;;;;;;11.78;62.10;95777.75;5073146;28;19924;-83
2023/11/02 08:51:46;;;;;;;;;;;;;;;11.82;62.80;95756.81;5072198;28;19925;-83
2023/11/02 08:54:34;;;;;;;;;;;;;;;11.72;64.48;95762.91;5065379;28;19928;-84
2023/11/02 08:57:24;;;;;;;;;;;;;;;11.74;65.29;95749.72;5066832;28;20015;-85
2023/11/02 09:00:14;;;;;;;;;;;;;;;11.63;66.60;95755.03;5087788;28;20025;-81
2023/11/02 09:03:02;;;;;;;;;;;;;;;11.73;65.98;95759.03;5074248;28;19925;-81
2023/11/02 09:05:54;;;;;;;;;;;;;;;11.60;66.81;95755.75;5065760;28;20033;-80
2023/11/02 09:08:43;;;;;;;;;;;;;;;11.74;67.43;95741.53;5055708;28;19925;-80
2023/11/02 09:11:31;;;;;;;;;;;;;;;11.58;68.56;95738.25;5075249;28;19928;-80
2023/11/02 09:14:22;;;;;;;;;;;;;;;11.55;69.05;95743.25;5073993;28;19924;-83
2023/11/02 09:17:10;;;;;;;;;;;;;;;11.42;68.96;95739.22;5071391;28;19929;-80
2023/11/02 09:19:58;;;;;;;;;;;;;;;11.65;68.57;95752.69;5075059;28;20318;-80
2023/11/02 09:22:48;;;;;;;;;;;;;;;11.03;70.91;95725.13;5053502;28;19925;-80
2023/11/02 09:25:36;;;;;;;;;;;;;;;11.52;70.01;95741.28;5065944;28;19924;-80
2023/11/02 09:28:25;;;;;;;;;;;;;;;10.81;72.11;95715.88;5076807;28;19924;-78
2023/11/02 09:31:14;;;;;;;;;;;;;;;10.80;72.09;95703.44;5073999;28;20291;-83
2023/11/02 09:34:02;;;;;;;;;;;;;;;11.20;70.88;95708.28;5093962;28;19924;-79
2023/11/02 09:36:51;;;;;;;;;;;;;;;11.31;70.97;95700.25;5069665;28;20342;-80
2023/11/02 09:39:42;;;;;;;;;;;;;;;11.37;70.78;95690.63;5073251;28;19924;-81
2023/11/02 09:42:30;;;;;;;;;;;;;;;11.45;70.17;95705.06;5086988;28;19932;-80
2023/11/02 09:45:19;;;;;;;;;;;;;;;11.53;70.01;95706.72;5084341;28;20023;-81
2023/11/02 09:48:07;;;;;;;;;;;;;;;11.43;70.37;95702.72;5074035;28;19924;-80
2023/11/02 09:50:57;;;;;;;;;;;;;;;11.23;71.46;95701.31;5073276;28;19931;-83
2023/11/02 09:53:46;;;;;;;;;;;;;;;10.99;71.30;95678.88;5085877;28;19931;-86
2023/11/02 09:56:35;;;;;;;;;;;;;;;10.90;72.42;95681.06;5089307;28;19924;-86
2023/11/02 09:59:24;;;;;;;;;;;;;;;11.06;72.45;95666.53;5090892;28;19924;-90
2023/11/02 10:02:13;;;;;;;;;;;;;;;10.84;73.22;95655.38;5089485;28;19972;-91
2023/11/02 10:05:01;;;;;;;;;;;;;;;11.16;72.69;95634.06;5079474;28;20013;-88
2023/11/02 10:07:50;;;;;;;;;;;;;;;11.21;71.94;95624.81;5089110;28;19924;-87
2023/11/02 10:10:38;;;;;;;;;;;;;;;11.08;72.19;95620.75;5086483;28;19928;-83
2023/11/02 10:13:27;;;;;;;;;;;;;;;10.95;72.60;95615.56;5085595;28;20081;-83
2023/11/02 10:16:18;;;;;;;;;;;;;;;10.96;73.19;95598.09;5091063;28;20265;-86
2023/11/02 10:19:08;;;;;;;;;;;;;;;10.91;74.02;95590.28;5067163;28;19931;-83
2023/11/02 10:21:57;;;;;;;;;;;;;;;10.85;74.58;95583.59;5093908;28;20375;-88
2023/11/02 10:24:46;;;;;;;;;;;;;;;10.86;74.79;95568.88;5072762;28;19939;-90
2023/11/02 10:27:38;;;;;;;;;;;;;;;11.06;74.16;95563.28;5076153;28;19933;-89
2023/11/02 10:30:28;;;;;;;;;;;;;;;11.08;73.94;95559.06;5072461;28;19932;-88
2023/11/02 10:33:17;;;;;;;;;;;;;;;11.14;73.79;95551.34;5068823;28;19935;-90
2023/11/02 10:36:06;;;;;;;;;;;;;;;11.19;73.57;95540.16;5069307;28;20376;-93
2023/11/02 10:38:55;;;;;;;;;;;;;;;11.08;73.98;95534.59;5057836;28;19924;-90
2023/11/02 10:41:43;;;;;;;;;;;;;;;11.24;74.10;95531.66;5052396;28;19924;-89
2023/11/02 10:44:32;;;;;;;;;;;;;;;11.33;73.60;95532.13;5050024;28;19928;-90
2023/11/02 10:47:21;;;;;;;;;;;;;;;11.44;73.33;95524.84;5063373;28;19924;-90
2023/11/02 10:50:11;;;;;;;;;;;;;;;11.59;72.45;95516.81;5061581;28;20415;-86
2023/11/02 10:52:59;;;;;;;;;;;;;;;11.46;72.42;95522.56;5071540;28;19932;-87
2023/11/02 10:55:48;;;;;;;;;;;;;;;11.53;73.31;95528.03;5067236;28;19924;-88
2023/11/02 10:58:36;;;;;;;;;;;;;;;11.69;72.39;95522.34;5064294;28;19924;-88
2023/11/02 11:01:25;;;;;;;;;;;;;;;11.88;71.91;95520.56;5046151;28;20019;-78
2023/11/02 11:04:15;;;;;;;;;;;;;;;11.58;73.78;95507.09;5061808;28;19931;-78
2023/11/02 11:07:03;;;;;;;;;;;;;;;11.73;72.70;95500.63;5065348;28;19972;-78
2023/11/02 11:09:51;;;;;;;;;;;;;;;11.91;72.30;95492.59;5059181;28;20023;-79
2023/11/02 11:12:39;;;;;;;;;;;;;;;12.00;71.26;95490.34;5072730;28;19933;-82
2023/11/02 11:15:28;;;;;;;;;;;;;;;12.01;70.89;95487.25;5064197;28;19924;-77
2023/11/02 11:18:16;;;;;;;;;;;;;;;12.11;70.47;95484.97;5053036;28;19924;-77
2023/11/02 11:21:06;;;;;;;;;;;;;;;12.17;70.95;95483.44;5073761;28;19931;-78
2023/11/02 11:23:54;;;;;;;;;;;;;;;12.12;70.66;95486.53;5058344;28;19935;-78
2023/11/02 11:26:50;;;;;;;;;;;;;;;12.17;70.21;95488.88;5064529;28;20054;-80
2023/11/02 11:29:38;;;;;;;;;;;;;;;12.26;71.02;95511.13;5065817;28;20298;-81
2023/11/02 11:32:33;;;;;;;;;;;;;;;12.23;70.46;95517.31;5082024;28;20295;-80
2023/11/02 11:35:23;;;;;;;;;;;;;;;12.17;70.71;95524.28;5082945;28;20445;-80
2023/11/02 11:38:16;;;;;;;;;;;;;;;12.27;70.10;95529.00;5086910;28;19939;-84
2023/11/02 11:41:15;;;;;;;;;;;;;;;12.19;70.39;95536.34;5086947;28;19931;-82
2023/11/02 11:44:07;;;;;;;;;;;;;;;12.10;70.81;95529.69;5096876;28;20016;-84
2023/11/02 11:46:56;;;;;;;;;;;;;;;12.21;70.42;95528.59;5063136;28;19925;-82
2023/11/02 11:49:45;;;;;;;;;;;;;;;12.27;71.20;95509.94;5089015;28;20046;-81
2023/11/02 11:52:33;;;;;;;;;;;;;;;12.21;70.60;95527.81;5087856;28;19924;-78
2023/11/02 11:55:36;;;;;;;;;;;;;;;12.21;70.58;95539.47;5062553;28;20005;-82
2023/11/02 11:58:40;;;;;;;;;;;;;;;12.23;70.53;95547.25;5070336;28;19935;-82
2023/11/02 12:01:30;;;;;;;;;;;;;;;12.23;71.34;95547.25;5083722;28;19970;-79
2023/11/02 12:04:46;;;;;;;;;;;;;;;12.24;70.54;95576.03;5076667;28;20331;-77
2023/11/02 12:07:34;;;;;;;;;;;;;;;12.12;70.19;95579.84;5081988;28;19924;-81
2023/11/02 12:10:22;;;;;;;;;;;;;;;11.90;71.25;95595.22;5075191;28;20274;-80
2023/11/02 12:13:12;;;;;;;;;;;;;;;11.98;71.19;95598.78;5069028;28;19954;-80
2023/11/02 12:16:01;;;;;;;;;;;;;;;11.90;71.39;95591.72;5086470;28;19924;-80
2023/11/02 12:18:53;;;;;;;;;;;;;;;11.81;72.41;95592.00;5084135;28;20015;-82
2023/11/02 12:21:41;;;;;;;;;;;;;;;11.68;72.20;95610.53;5069632;28;20329;-82
2023/11/02 12:24:37;;;;;;;;;;;;;;;11.53;73.31;95584.38;5085739;28;20015;-82
2023/11/02 12:27:25;;;;;;;;;;;;;;;11.69;73.16;95584.13;5088280;28;20272;-83
2023/11/02 12:30:15;;;;;;;;;;;;;;;11.74;73.19;95583.78;5075291;28;19932;-82
2023/11/02 12:33:03;;;;;;;;;;;;;;;11.37;74.74;95583.81;5083684;28;20008;-81
2023/11/02 12:35:52;;;;;;;;;;;;;;;11.39;75.20;95578.78;5080302;28;19924;-82
2023/11/02 12:38:48;;;;;;;;;;;;;;;11.53;74.82;95573.47;5076445;28;19924;-82
2023/11/02 12:41:36;;;;;;;;;;;;;;;11.21;76.08;95565.00;5076705;28;19924;-82
2023/11/02 12:44:25;;;;;;;;;;;;;;;11.58;75.26;95553.34;5068421;28;20018;-82
2023/11/02 12:47:14;;;;;;;;;;;;;;;11.61;75.56;95550.66;5095780;28;19928;-81
2023/11/02 12:50:04;;;;;;;;;;;;;;;11.29;75.80;95563.91;5072586;28;19928;-79
2023/11/02 12:52:52;;;;;;;;;;;;;;;11.51;75.76;95565.72;5092823;28;19981;-82
2023/11/02 12:55:46;;;;;;;;;;;;;;;11.46;76.51;95560.63;5101129;28;20091;-82
2023/11/02 12:58:35;;;;;;;;;;;;;;;11.52;75.84;95547.47;5087031;28;20390;-81
2023/11/02 13:01:24;;;;;;;;;;;;;;;11.67;75.20;95534.78;5072374;28;20030;-82
2023/11/02 13:04:14;;;;;;;;;;;;;;;11.56;75.84;95537.41;5078518;28;19924;-80
2023/11/02 13:07:02;;;;;;;;;;;;;;;11.33;77.38;95534.06;5093650;28;19930;-81
2023/11/02 13:10:03;;;;;;;;;;;;;;;11.49;76.81;95532.66;5078577;28;19931;-81
2023/11/02 13:12:54;;;;;;;;;;;;;;;11.60;76.55;95532.75;5086291;28;20287;-81
2023/11/02 13:15:42;;;;;;;;;;;;;;;11.54;76.58;95528.81;5086652;28;19928;-82
2023/11/02 13:18:32;;;;;;;;;;;;;;;11.51;76.71;95522.22;5068432;28;20043;-81
2023/11/02 13:21:22;;;;;;;;;;;;;;;11.53;76.53;95509.00;5088060;28;19931;-81
2023/11/02 13:24:13;;;;;;;;;;;;;;;11.33;78.09;95490.56;5065769;28;20651;-82
2023/11/02 13:27:03;;;;;;;;;;;;;;;11.19;78.11;95496.66;5089665;28;19924;-81
2023/11/02 13:29:52;;;;;;;;;;;;;;;11.07;79.28;95500.41;5089217;28;19974;-83
2023/11/02 13:32:40;;;;;;;;;;;;;;;11.41;77.89;95503.84;5087125;28;20394;-83
2023/11/02 13:35:28;;;;;;;;;;;;;;;11.26;78.96;95489.34;5085613;28;19925;-83
2023/11/02 13:38:17;;;;;;;;;;;;;;;11.49;78.05;95482.94;5088595;28;20331;-82
2023/11/02 13:41:06;;;;;;;;;;;;;;;11.38;78.03;95477.41;5093506;28;19938;-81
2023/11/02 13:43:55;;;;;;;;;;;;;;;11.22;78.98;95479.59;5093853;28;20681;-82
2023/11/02 13:46:45;;;;;;;;;;;;;;;11.11;79.43;95476.78;5075215;28;19935;-82
2023/11/02 13:49:34;;;;;;;;;;;;;;;11.41;78.52;95465.03;5072390;28;19977;-82
2023/11/02 13:52:24;;;;;;;;;;;;;;;11.44;78.70;95451.44;5089104;28;19957;-81
2023/11/02 13:55:14;;;;;;;;;;;;;;;11.50;78.81;95424.69;5086672;28;19924;-82
2023/11/02 13:58:02;;;;;;;;;;;;;;;11.48;78.21;95427.78;5082288;28;20287;-81
2023/11/02 14:00:51;;;;;;;;;;;;;;;11.49;77.84;95417.69;5078153;28;19973;-82
2023/11/02 14:03:39;;;;;;;;;;;;;;;11.37;78.16;95426.94;5090242;28;19939;-82
2023/11/02 14:06:27;;;;;;;;;;;;;;;11.55;78.08;95441.41;5090674;28;19931;-81
2023/11/02 14:09:16;;;;;;;;;;;;;;;11.38;79.17;95433.91;5078483;28;19952;-81
2023/11/02 14:12:06;;;;;;;;;;;;;;;11.15;79.82;95417.81;5092097;28;19967;-82
2023/11/02 14:14:55;;;;;;;;;;;;;;;11.35;78.85;95406.72;5070974;28;19928;-85
2023/11/02 14:17:47;;;;;;;;;;;;;;;11.22;79.26;95393.41;5085516;28;19924;-81
2023/11/02 14:20:35;;;;;;;;;;;;;;;11.12;79.72;95382.47;5073754;28;19928;-81
2023/11/02 14:23:23;;;;;;;;;;;;;;;11.35;79.08;95379.53;5065804;28;19925;-81
2023/11/02 14:26:11;;;;;;;;;;;;;;;11.31;79.28;95379.50;5080973;28;19979;-81
2023/11/02 14:29:00;;;;;;;;;;;;;;;11.28;79.77;95391.91;5075160;28;19933;-81
2023/11/02 14:31:48;;;;;;;;;;;;;;;11.39;79.43;95405.56;5092080;28;19924;-82
2023/11/02 14:34:36;;;;;;;;;;;;;;;11.53;78.46;95402.97;5087101;28;19931;-81
2023/11/02 14:37:25;;;;;;;;;;;;;;;11.28;78.19;95399.28;5073310;28;19924;-82
2023/11/02 14:40:16;;;;;;;;;;;;;;;11.43;78.19;95392.78;5076695;28;19977;-81
2023/11/02 14:43:04;;;;;;;;;;;;;;;11.28;78.97;95393.84;5075625;28;19924;-81
2023/11/02 14:45:54;;;;;;;;;;;;;;;11.50;78.36;95414.59;5088232;28;19934;-81